Terminal Aerodrome Forecast
Issued by NWS

Home | Current Version | Previous Version | Text Only | Print | Product List | Glossary Off
Versions: 1 2 3 4 5 6 7 8 9 10 11 12 13 14

382
FTUS43 KFGF 202320
TAFBJI
TAF
KBJI 202320Z 2100/2124 16014G20KT P6SM SCT250
     FM210100 16015G24KT P6SM SCT250 WS020/18045KT
     FM211200 17013KT P6SM BKN025
     FM211400 17013KT P6SM BKN015
     FM212000 21010KT P6SM OVC020
     FM212200 23009KT P6SM BKN035=

USA.gov is the U.S. government's official web portal to all federal, state and local government web resources and services.